createdAt,value
2018-04-25T00:00:49.000Z,99625
2018-04-25T00:02:49.000Z,99621
2018-04-25T00:03:49.000Z,99624
2018-04-25T00:05:49.000Z,99615
2018-04-25T00:07:49.000Z,99615
2018-04-25T00:09:49.000Z,99606
2018-04-25T00:11:49.000Z,99606
2018-04-25T00:12:49.000Z,99605
2018-04-25T00:13:49.000Z,99605
2018-04-25T00:15:34.000Z,99608
2018-04-25T00:16:34.000Z,99598
2018-04-25T00:17:49.000Z,99602
2018-04-25T00:19:49.000Z,99597
2018-04-25T00:20:49.000Z,99595
2018-04-25T00:22:49.000Z,99598
2018-04-25T00:24:49.000Z,99598
2018-04-25T00:26:49.000Z,99588
2018-04-25T00:27:49.000Z,99585
2018-04-25T00:29:49.000Z,99580
2018-04-25T00:31:49.000Z,99574
2018-04-25T00:33:49.000Z,99569
2018-04-25T00:35:49.000Z,99565
2018-04-25T00:36:49.000Z,99566
2018-04-25T00:38:49.000Z,99567
2018-04-25T00:40:49.000Z,99566
2018-04-25T00:41:49.000Z,99556
2018-04-25T00:42:49.000Z,99553
2018-04-25T00:44:49.000Z,99559
2018-04-25T00:46:49.000Z,99556
2018-04-25T00:47:49.000Z,99562
2018-04-25T00:49:49.000Z,99560
2018-04-25T00:51:33.000Z,99560
2018-04-25T00:52:49.000Z,99567
2018-04-25T00:54:49.000Z,99555
2018-04-25T00:56:49.000Z,99556
2018-04-25T00:58:49.000Z,99561
2018-04-25T01:00:49.000Z,99548
2018-04-25T01:01:49.000Z,99540
2018-04-25T01:02:49.000Z,99544
2018-04-25T01:04:49.000Z,99540
2018-04-25T01:06:49.000Z,99525
2018-04-25T01:07:49.000Z,99527
2018-04-25T01:09:49.000Z,99516
2018-04-25T01:11:49.000Z,99519
2018-04-25T01:12:49.000Z,99515
2018-04-25T01:14:49.000Z,99517
2018-04-25T01:16:49.000Z,99515
2018-04-25T01:17:49.000Z,99517
2018-04-25T01:19:18.000Z,99516
2018-04-25T01:20:49.000Z,99519
2018-04-25T01:22:49.000Z,99512
2018-04-25T01:24:49.000Z,99506
2018-04-25T01:26:49.000Z,99509
2018-04-25T01:27:49.000Z,99513
2018-04-25T01:29:49.000Z,99510
2018-04-25T01:31:49.000Z,99509
2018-04-25T01:33:49.000Z,99504
2018-04-25T01:35:33.000Z,99504
2018-04-25T01:36:49.000Z,99507
2018-04-25T01:38:49.000Z,99501
2018-04-25T01:39:49.000Z,99509
2018-04-25T01:40:49.000Z,99505
2018-04-25T01:42:49.000Z,99497
2018-04-25T01:44:49.000Z,99504
2018-04-25T01:46:49.000Z,99502
2018-04-25T01:48:49.000Z,99502
2018-04-25T01:50:49.000Z,99500
2018-04-25T01:51:49.000Z,99497
2018-04-25T01:53:49.000Z,99495
2018-04-25T01:54:49.000Z,99504
2018-04-25T01:56:49.000Z,99494
2018-04-25T01:57:49.000Z,99499
2018-04-25T01:59:49.000Z,99495
2018-04-25T02:00:49.000Z,99505
2018-04-25T02:02:49.000Z,99501
2018-04-25T02:04:49.000Z,99496
2018-04-25T02:06:49.000Z,99493
2018-04-25T02:07:49.000Z,99498
2018-04-25T02:09:34.000Z,99493
2018-04-25T02:10:49.000Z,99498
2018-04-25T02:12:49.000Z,99491
2018-04-25T02:14:49.000Z,99486
2018-04-25T02:15:49.000Z,99496
2018-04-25T02:17:49.000Z,99493
2018-04-25T02:19:49.000Z,99490
2018-04-25T02:20:49.000Z,99488
2018-04-25T02:22:49.000Z,99492
2018-04-25T02:23:49.000Z,99483
2018-04-25T02:25:34.000Z,99496
2018-04-25T02:26:49.000Z,99495
2018-04-25T02:27:49.000Z,99495
2018-04-25T02:28:49.000Z,99492
2018-04-25T02:30:49.000Z,99495
2018-04-25T02:32:49.000Z,99493
2018-04-25T02:34:49.000Z,99502
2018-04-25T02:35:49.000Z,99493
2018-04-25T02:36:49.000Z,99498
2018-04-25T02:38:49.000Z,99488
2018-04-25T02:40:49.000Z,99482
2018-04-25T02:42:49.000Z,99481
2018-04-25T02:43:49.000Z,99482
2018-04-25T02:45:49.000Z,99475
2018-04-25T02:47:34.000Z,99469
2018-04-25T02:48:49.000Z,99479
2018-04-25T02:50:34.000Z,99487
2018-04-25T02:51:49.000Z,99485
2018-04-25T02:53:49.000Z,99491
2018-04-25T02:55:49.000Z,99494
2018-04-25T02:57:49.000Z,99487
2018-04-25T02:59:49.000Z,99480
2018-04-25T03:01:49.000Z,99484
2018-04-25T03:02:49.000Z,99487
2018-04-25T03:04:49.000Z,99478
2018-04-25T03:06:49.000Z,99481
2018-04-25T03:08:49.000Z,99472
2018-04-25T03:10:49.000Z,99473
2018-04-25T03:12:49.000Z,99464
2018-04-25T03:13:49.000Z,99472
2018-04-25T03:14:49.000Z,99473
2018-04-25T03:16:49.000Z,99469
2018-04-25T03:17:49.000Z,99461
2018-04-25T03:19:49.000Z,99466
2018-04-25T03:20:49.000Z,99467
2018-04-25T03:21:49.000Z,99464
2018-04-25T03:23:49.000Z,99466
2018-04-25T03:25:33.000Z,99463
2018-04-25T03:26:49.000Z,99454
2018-04-25T03:28:33.000Z,99466
2018-04-25T03:29:49.000Z,99460
2018-04-25T03:30:49.000Z,99466
2018-04-25T03:31:49.000Z,99470
2018-04-25T03:33:49.000Z,99472
2018-04-25T03:35:49.000Z,99465
2018-04-25T03:37:18.000Z,99461
2018-04-25T03:38:49.000Z,99466
2018-04-25T03:39:49.000Z,99462
2018-04-25T03:41:49.000Z,99467
2018-04-25T03:42:49.000Z,99464
2018-04-25T03:44:49.000Z,99465
2018-04-25T03:45:49.000Z,99462
2018-04-25T03:47:49.000Z,99458
2018-04-25T03:49:49.000Z,99468
2018-04-25T03:50:49.000Z,99461
2018-04-25T03:51:49.000Z,99456
2018-04-25T03:52:49.000Z,99466
2018-04-25T03:54:18.000Z,99468
2018-04-25T03:55:49.000Z,99461
2018-04-25T03:57:49.000Z,99466
2018-04-25T03:58:49.000Z,99458
2018-04-25T04:00:49.000Z,99462
2018-04-25T04:02:49.000Z,99462
2018-04-25T04:04:49.000Z,99463
2018-04-25T04:06:49.000Z,99460
2018-04-25T04:08:49.000Z,99453
2018-04-25T04:10:34.000Z,99457
2018-04-25T04:11:49.000Z,99453
2018-04-25T04:13:49.000Z,99459
2018-04-25T04:15:49.000Z,99462
2018-04-25T04:17:49.000Z,99464
2018-04-25T04:19:49.000Z,99463
2018-04-25T04:20:49.000Z,99462
2018-04-25T04:22:49.000Z,99469
2018-04-25T04:24:49.000Z,99478
2018-04-25T04:26:49.000Z,99470
2018-04-25T04:28:34.000Z,99470
2018-04-25T04:29:49.000Z,99473
2018-04-25T04:30:49.000Z,99476
2018-04-25T04:32:49.000Z,99480
2018-04-25T04:34:49.000Z,99477
2018-04-25T04:35:49.000Z,99477
2018-04-25T04:37:18.000Z,99478
2018-04-25T04:38:49.000Z,99482
2018-04-25T04:39:49.000Z,99484
2018-04-25T04:41:49.000Z,99501
2018-04-25T04:42:49.000Z,99486
2018-04-25T04:44:49.000Z,99483
2018-04-25T04:45:49.000Z,99495
2018-04-25T04:47:34.000Z,99500
2018-04-25T04:48:49.000Z,99494
2018-04-25T04:50:34.000Z,99487
2018-04-25T04:51:49.000Z,99495
2018-04-25T04:52:49.000Z,99493
2018-04-25T04:53:49.000Z,99493
2018-04-25T04:55:49.000Z,99489
2018-04-25T04:56:49.000Z,99490
2018-04-25T04:58:49.000Z,99494
2018-04-25T05:00:49.000Z,99496
2018-04-25T05:01:49.000Z,99487
2018-04-25T05:03:49.000Z,99485
2018-04-25T05:04:48.000Z,99483
2018-04-25T05:06:48.000Z,99482
2018-04-25T05:08:48.000Z,99481
2018-04-25T05:10:48.000Z,99486
2018-04-25T05:11:48.000Z,99488
2018-04-25T05:13:48.000Z,99490
2018-04-25T05:14:48.000Z,99489
2018-04-25T05:16:48.000Z,99489
2018-04-25T05:18:48.000Z,99487
2018-04-25T05:20:33.000Z,99495
2018-04-25T05:21:48.000Z,99515
2018-04-25T05:23:48.000Z,99492
2018-04-25T05:24:48.000Z,99487
2018-04-25T05:26:48.000Z,99498
2018-04-25T05:27:48.000Z,99497
2018-04-25T05:29:33.000Z,99492
2018-04-25T05:30:48.000Z,99491
2018-04-25T05:32:48.000Z,99489
2018-04-25T05:33:48.000Z,99480
2018-04-25T05:35:48.000Z,99484
2018-04-25T05:37:48.000Z,99505
2018-04-25T05:38:48.000Z,99492
2018-04-25T05:40:48.000Z,99495
2018-04-25T05:42:48.000Z,99501
2018-04-25T05:43:48.000Z,99496
2018-04-25T05:45:33.000Z,99516
2018-04-25T05:46:48.000Z,99520
2018-04-25T05:48:18.000Z,99526
2018-04-25T05:49:48.000Z,99553
2018-04-25T05:51:33.000Z,99519
2018-04-25T05:52:48.000Z,99526
2018-04-25T05:54:48.000Z,99523
2018-04-25T05:56:48.000Z,99537
2018-04-25T05:57:48.000Z,99539
2018-04-25T05:59:48.000Z,99550
2018-04-25T06:00:48.000Z,99553
2018-04-25T06:02:48.000Z,99552
2018-04-25T06:03:48.000Z,99555
2018-04-25T06:05:33.000Z,99563
2018-04-25T06:06:49.000Z,99557
2018-04-25T06:08:49.000Z,99554
2018-04-25T06:09:49.000Z,99558
2018-04-25T06:11:49.000Z,99561
2018-04-25T06:13:33.000Z,99564
2018-04-25T06:14:49.000Z,99556
2018-04-25T06:16:49.000Z,99567
2018-04-25T06:18:49.000Z,99558
2018-04-25T06:19:49.000Z,99571
2018-04-25T06:21:49.000Z,99561
2018-04-25T06:22:49.000Z,99566
2018-04-25T06:24:49.000Z,99570
2018-04-25T06:25:49.000Z,99568
2018-04-25T06:27:49.000Z,99577
2018-04-25T06:29:49.000Z,99574
2018-04-25T06:30:49.000Z,99584
2018-04-25T06:31:49.000Z,99582
2018-04-25T06:33:49.000Z,99582
2018-04-25T06:34:49.000Z,99574
2018-04-25T06:36:49.000Z,99581
2018-04-25T06:38:49.000Z,99589
2018-04-25T06:39:49.000Z,99597
2018-04-25T06:40:49.000Z,99602
2018-04-25T06:42:33.000Z,99600
2018-04-25T06:43:49.000Z,99593
2018-04-25T06:45:33.000Z,99610
2018-04-25T06:46:49.000Z,99595
2018-04-25T06:47:49.000Z,99615
2018-04-25T06:49:49.000Z,99609
2018-04-25T06:50:49.000Z,99607
2018-04-25T06:51:49.000Z,99607
2018-04-25T06:53:49.000Z,99617
2018-04-25T06:55:33.000Z,99602
2018-04-25T06:56:49.000Z,99613
2018-04-25T06:58:49.000Z,99613
2018-04-25T06:59:49.000Z,99606
2018-04-25T07:01:49.000Z,99602
2018-04-25T07:02:49.000Z,99599
2018-04-25T07:03:49.000Z,99607
2018-04-25T07:05:33.000Z,99603
2018-04-25T07:06:49.000Z,99606
2018-04-25T07:08:33.000Z,99605
2018-04-25T07:09:49.000Z,99604
2018-04-25T07:10:49.000Z,99604
2018-04-25T07:12:49.000Z,99604
2018-04-25T07:14:49.000Z,99601
2018-04-25T07:16:49.000Z,99585
2018-04-25T07:18:49.000Z,99592
2018-04-25T07:20:49.000Z,99595
2018-04-25T07:21:49.000Z,99600
2018-04-25T07:23:34.000Z,99605
2018-04-25T07:24:49.000Z,99604
2018-04-25T07:26:49.000Z,99614
2018-04-25T07:28:49.000Z,99619
2018-04-25T07:29:49.000Z,99623
2018-04-25T07:31:49.000Z,99627
2018-04-25T07:32:49.000Z,99632
2018-04-25T07:33:49.000Z,99634
2018-04-25T07:35:49.000Z,99639
2018-04-25T07:37:34.000Z,99634
2018-04-25T07:38:49.000Z,99637
2018-04-25T07:39:49.000Z,99635
2018-04-25T07:40:49.000Z,99626
2018-04-25T07:42:49.000Z,99638
2018-04-25T07:44:49.000Z,99632
2018-04-25T07:46:49.000Z,99641
2018-04-25T07:48:49.000Z,99635
2018-04-25T07:50:19.000Z,99644
2018-04-25T07:51:49.000Z,99633
2018-04-25T07:52:49.000Z,99635
2018-04-25T07:54:49.000Z,99633
2018-04-25T07:56:34.000Z,99636
2018-04-25T07:57:49.000Z,99634
2018-04-25T07:59:49.000Z,99643
2018-04-25T08:01:49.000Z,99643
2018-04-25T08:03:49.000Z,99652
2018-04-25T08:05:49.000Z,99642
2018-04-25T08:07:49.000Z,99644
2018-04-25T08:08:49.000Z,99647
2018-04-25T08:10:49.000Z,99649
2018-04-25T08:11:49.000Z,99637
2018-04-25T08:13:49.000Z,99649
2018-04-25T08:15:49.000Z,99642
2018-04-25T08:17:49.000Z,99654
2018-04-25T08:18:49.000Z,99657
2018-04-25T08:20:49.000Z,99662
2018-04-25T08:22:49.000Z,99662
2018-04-25T08:24:34.000Z,99665
2018-04-25T08:25:49.000Z,99660
2018-04-25T08:27:49.000Z,99663
2018-04-25T08:29:49.000Z,99668
2018-04-25T08:30:49.000Z,99664
2018-04-25T08:31:49.000Z,99666
2018-04-25T08:33:49.000Z,99683
2018-04-25T08:34:49.000Z,99682
2018-04-25T08:36:49.000Z,99694
2018-04-25T08:38:34.000Z,99699
2018-04-25T08:39:49.000Z,99694
2018-04-25T08:41:49.000Z,99704
2018-04-25T08:42:49.000Z,99699
2018-04-25T08:44:49.000Z,99704
2018-04-25T08:46:49.000Z,99707
2018-04-25T08:48:49.000Z,99718
2018-04-25T08:49:49.000Z,99718
2018-04-25T08:50:49.000Z,99717
2018-04-25T08:52:34.000Z,99725
2018-04-25T08:53:49.000Z,99725
2018-04-25T08:54:49.000Z,99728
2018-04-25T08:56:34.000Z,99725
2018-04-25T08:57:49.000Z,99733
2018-04-25T08:59:49.000Z,99739
2018-04-25T09:00:49.000Z,99739
2018-04-25T09:01:49.000Z,99733
2018-04-25T09:03:49.000Z,99753
2018-04-25T09:05:49.000Z,99752
2018-04-25T09:06:49.000Z,99753
2018-04-25T09:07:49.000Z,99760
2018-04-25T09:09:49.000Z,99760
2018-04-25T09:11:49.000Z,99761
2018-04-25T09:13:34.000Z,99767
2018-04-25T09:14:49.000Z,99765
2018-04-25T09:16:49.000Z,99768
2018-04-25T09:17:49.000Z,99768
2018-04-25T09:19:49.000Z,99772
2018-04-25T09:20:49.000Z,99777
2018-04-25T09:22:49.000Z,99781
2018-04-25T09:24:49.000Z,99773
2018-04-25T09:25:49.000Z,99786
2018-04-25T09:27:49.000Z,99782
2018-04-25T09:29:49.000Z,99785
2018-04-25T09:30:49.000Z,99788
2018-04-25T09:31:49.000Z,99790
2018-04-25T09:32:49.000Z,99795
2018-04-25T09:34:49.000Z,99800
2018-04-25T09:35:49.000Z,99793
2018-04-25T09:36:49.000Z,99798
2018-04-25T09:38:49.000Z,99793
2018-04-25T09:39:49.000Z,99803
2018-04-25T09:41:49.000Z,99804
2018-04-25T09:43:33.000Z,99803
2018-04-25T09:44:49.000Z,99803
2018-04-25T09:46:49.000Z,99801
2018-04-25T09:47:49.000Z,99804
2018-04-25T09:49:49.000Z,99807
2018-04-25T09:50:49.000Z,99809
2018-04-25T09:52:33.000Z,99813
2018-04-25T09:53:49.000Z,99808
2018-04-25T09:54:49.000Z,99809
2018-04-25T09:56:33.000Z,99801
2018-04-25T09:57:49.000Z,99803
2018-04-25T09:59:49.000Z,99810
2018-04-25T10:03:35.000Z,99814
2018-04-25T10:04:35.000Z,99821
2018-04-25T10:06:35.000Z,99805
2018-04-25T10:07:35.000Z,99809
2018-04-25T10:09:35.000Z,99810
2018-04-25T10:10:35.000Z,99820
2018-04-25T10:12:35.000Z,99804
2018-04-25T10:14:35.000Z,99813
2018-04-25T10:16:35.000Z,99819
2018-04-25T10:18:35.000Z,99814
2018-04-25T10:20:35.000Z,99816
2018-04-25T10:22:04.000Z,99807
2018-04-25T10:23:35.000Z,99811
2018-04-25T10:24:35.000Z,99811
2018-04-25T10:26:35.000Z,99810
2018-04-25T10:28:35.000Z,99808
2018-04-25T10:29:35.000Z,99797
2018-04-25T10:31:35.000Z,99800
2018-04-25T10:33:35.000Z,99810
2018-04-25T10:35:35.000Z,99816
2018-04-25T10:37:35.000Z,99832
2018-04-25T10:39:35.000Z,99829
2018-04-25T10:41:20.000Z,99822
2018-04-25T10:42:35.000Z,99827
2018-04-25T10:43:35.000Z,99829
2018-04-25T10:45:35.000Z,99827
2018-04-25T10:46:35.000Z,99828
2018-04-25T10:47:35.000Z,99838
2018-04-25T10:49:35.000Z,99836
2018-04-25T10:51:35.000Z,99827
2018-04-25T10:52:35.000Z,99835
2018-04-25T10:53:35.000Z,99839
2018-04-25T10:55:35.000Z,99850
2018-04-25T10:56:35.000Z,99845
2018-04-25T10:57:35.000Z,99847
2018-04-25T10:59:35.000Z,99839
2018-04-25T11:01:35.000Z,99840
2018-04-25T11:05:21.000Z,99851
2018-04-25T11:06:21.000Z,99846
2018-04-25T11:07:21.000Z,99850
2018-04-25T11:09:21.000Z,99853
2018-04-25T11:10:21.000Z,99848
2018-04-25T11:12:21.000Z,99854
2018-04-25T11:13:21.000Z,99859
2018-04-25T11:15:21.000Z,99856
2018-04-25T11:16:21.000Z,99863
2018-04-25T11:18:21.000Z,99857
2018-04-25T11:20:21.000Z,99857
2018-04-25T11:22:06.000Z,99858
2018-04-25T11:23:21.000Z,99860
2018-04-25T11:25:21.000Z,99865
2018-04-25T11:27:05.000Z,99872
2018-04-25T11:28:21.000Z,99856
2018-04-25T11:30:21.000Z,99867
2018-04-25T11:32:21.000Z,99861
2018-04-25T11:34:21.000Z,99865
2018-04-25T11:36:21.000Z,99858
2018-04-25T11:38:21.000Z,99866
2018-04-25T11:39:21.000Z,99861
2018-04-25T11:41:21.000Z,99849
2018-04-25T11:43:21.000Z,99852
2018-04-25T11:45:21.000Z,99854
2018-04-25T11:47:21.000Z,99847
2018-04-25T11:49:21.000Z,99865
2018-04-25T11:51:21.000Z,99855
2018-04-25T11:53:21.000Z,99848
2018-04-25T11:55:21.000Z,99841
2018-04-25T11:57:21.000Z,99847
2018-04-25T11:59:21.000Z,99853
2018-04-25T12:01:05.000Z,99857
2018-04-25T12:02:21.000Z,99860
2018-04-25T12:03:21.000Z,99850
2018-04-25T12:05:21.000Z,99858
2018-04-25T12:06:21.000Z,99859
2018-04-25T12:08:21.000Z,99861
2018-04-25T12:10:21.000Z,99860
2018-04-25T12:12:21.000Z,99861
2018-04-25T12:14:21.000Z,99870
2018-04-25T12:16:05.000Z,99869
2018-04-25T12:17:21.000Z,99872
2018-04-25T12:19:21.000Z,99872
2018-04-25T12:20:21.000Z,99874
2018-04-25T12:21:21.000Z,99875
2018-04-25T12:23:21.000Z,99869
2018-04-25T12:25:21.000Z,99885
2018-04-25T12:27:21.000Z,99876
2018-04-25T12:29:05.000Z,99880
2018-04-25T12:30:21.000Z,99880
2018-04-25T12:31:50.000Z,99883
2018-04-25T12:33:21.000Z,99881
2018-04-25T12:35:21.000Z,99875
2018-04-25T12:37:21.000Z,99880
2018-04-25T12:38:21.000Z,99878
2018-04-25T12:40:21.000Z,99885
2018-04-25T12:41:50.000Z,99887
2018-04-25T12:43:21.000Z,99886
2018-04-25T12:45:21.000Z,99890
2018-04-25T12:47:21.000Z,99889
2018-04-25T12:48:21.000Z,99887
2018-04-25T12:50:21.000Z,99881
2018-04-25T12:52:21.000Z,99880
2018-04-25T12:54:05.000Z,99877
2018-04-25T12:55:21.000Z,99874
2018-04-25T12:57:05.000Z,99892
2018-04-25T12:58:21.000Z,99885
2018-04-25T13:00:21.000Z,99882
2018-04-25T13:01:21.000Z,99888
2018-04-25T13:03:21.000Z,99890
2018-04-25T13:05:21.000Z,99893
2018-04-25T13:06:21.000Z,99899
2018-04-25T13:08:05.000Z,99903
2018-04-25T13:09:21.000Z,99905
2018-04-25T13:10:21.000Z,99900
2018-04-25T13:12:21.000Z,99899
2018-04-25T13:14:21.000Z,99906
2018-04-25T13:16:21.000Z,99918
2018-04-25T13:17:21.000Z,99912
2018-04-25T13:19:05.000Z,99912
2018-04-25T13:20:21.000Z,99915
2018-04-25T13:22:21.000Z,99919
2018-04-25T13:23:21.000Z,99920
2018-04-25T13:25:21.000Z,99920
2018-04-25T13:26:21.000Z,99918
2018-04-25T13:28:05.000Z,99909
2018-04-25T13:29:21.000Z,99900
2018-04-25T13:31:21.000Z,99909
2018-04-25T13:33:21.000Z,99918
2018-04-25T13:35:21.000Z,99926
2018-04-25T13:37:21.000Z,99923
2018-04-25T13:39:21.000Z,99925
2018-04-25T13:40:21.000Z,99920
2018-04-25T13:42:06.000Z,99922
2018-04-25T13:43:21.000Z,99925
2018-04-25T13:44:21.000Z,99918
2018-04-25T13:46:21.000Z,99915
2018-04-25T13:48:21.000Z,99905
2018-04-25T13:50:21.000Z,99905
2018-04-25T13:52:06.000Z,99914
2018-04-25T13:53:21.000Z,99909
2018-04-25T13:55:21.000Z,99915
2018-04-25T13:57:06.000Z,99908
2018-04-25T13:58:06.000Z,99911
2018-04-25T13:59:21.000Z,99911
2018-04-25T14:01:21.000Z,99911
2018-04-25T14:03:21.000Z,99925
2018-04-25T14:04:21.000Z,99932
2018-04-25T14:06:21.000Z,99914
2018-04-25T14:07:21.000Z,99920
2018-04-25T14:09:21.000Z,99917
2018-04-25T14:10:21.000Z,99915
2018-04-25T14:12:21.000Z,99908
2018-04-25T14:14:21.000Z,99908
2018-04-25T14:16:21.000Z,99910
2018-04-25T14:18:21.000Z,99905
2018-04-25T14:19:21.000Z,99913
2018-04-25T14:20:21.000Z,99903
2018-04-25T14:22:21.000Z,99914
2018-04-25T14:24:06.000Z,99910
2018-04-25T14:25:21.000Z,99897
2018-04-25T14:26:21.000Z,99903
2018-04-25T14:28:21.000Z,99899
2018-04-25T14:29:21.000Z,99907
2018-04-25T14:31:21.000Z,99903
2018-04-25T14:33:21.000Z,99908
2018-04-25T14:34:21.000Z,99904
2018-04-25T14:36:21.000Z,99905
2018-04-25T14:38:05.000Z,99905
2018-04-25T14:39:21.000Z,99902
2018-04-25T14:40:21.000Z,99905
2018-04-25T14:41:21.000Z,99903
2018-04-25T14:43:05.000Z,99908
2018-04-25T14:44:21.000Z,99913
2018-04-25T14:46:21.000Z,99914
2018-04-25T14:47:21.000Z,99919
2018-04-25T14:48:21.000Z,99920
2018-04-25T14:49:21.000Z,99920
2018-04-25T14:51:21.000Z,99918
2018-04-25T14:52:21.000Z,99912
2018-04-25T14:54:21.000Z,99910
2018-04-25T14:56:05.000Z,99910
2018-04-25T14:57:21.000Z,99911
2018-04-25T14:59:21.000Z,99913
2018-04-25T15:00:21.000Z,99900
2018-04-25T15:01:21.000Z,99911
2018-04-25T15:03:21.000Z,99902
2018-04-25T15:04:21.000Z,99908
2018-04-25T15:06:21.000Z,99910
2018-04-25T15:08:21.000Z,99905
2018-04-25T15:10:21.000Z,99909
2018-04-25T15:12:21.000Z,99910
2018-04-25T15:14:21.000Z,99906
2018-04-25T15:16:21.000Z,99906
2018-04-25T15:18:21.000Z,99913
2018-04-25T15:20:05.000Z,99902
2018-04-25T15:22:21.000Z,99905
2018-04-25T15:23:21.000Z,99908
2018-04-25T15:25:05.000Z,99905
2018-04-25T15:26:21.000Z,99904
2018-04-25T15:28:21.000Z,99900
2018-04-25T15:30:21.000Z,99899
2018-04-25T15:32:05.000Z,99897
2018-04-25T15:33:21.000Z,99905
2018-04-25T15:35:21.000Z,99889
2018-04-25T15:37:21.000Z,99898
2018-04-25T15:38:21.000Z,99898
2018-04-25T15:40:21.000Z,99891
2018-04-25T15:41:21.000Z,99898
2018-04-25T15:43:06.000Z,99901
2018-04-25T15:44:21.000Z,99896
2018-04-25T15:46:21.000Z,99899
2018-04-25T15:47:21.000Z,99900
2018-04-25T15:49:21.000Z,99890
2018-04-25T15:50:21.000Z,99887
2018-04-25T15:52:21.000Z,99901
2018-04-25T15:54:21.000Z,99902
2018-04-25T15:56:06.000Z,99906
2018-04-25T15:57:21.000Z,99904
2018-04-25T15:59:21.000Z,99901
2018-04-25T16:01:06.000Z,99899
2018-04-25T16:02:21.000Z,99890
2018-04-25T16:03:21.000Z,99898
2018-04-25T16:04:51.000Z,99897
2018-04-25T16:06:21.000Z,99891
2018-04-25T16:08:21.000Z,99894
2018-04-25T16:10:21.000Z,99887
2018-04-25T16:12:21.000Z,99895
2018-04-25T16:14:21.000Z,99890
2018-04-25T16:16:21.000Z,99885
2018-04-25T16:17:21.000Z,99881
2018-04-25T16:19:21.000Z,99882
2018-04-25T16:21:21.000Z,99881
2018-04-25T16:22:21.000Z,99886
2018-04-25T16:24:06.000Z,99875
2018-04-25T16:25:06.000Z,99875
2018-04-25T16:26:21.000Z,99875
2018-04-25T16:28:21.000Z,99875
2018-04-25T16:29:21.000Z,99872
2018-04-25T16:31:06.000Z,99875
2018-04-25T16:32:21.000Z,99867
2018-04-25T16:34:21.000Z,99869
2018-04-25T16:35:21.000Z,99873
2018-04-25T16:37:06.000Z,99877
2018-04-25T16:38:21.000Z,99875
2018-04-25T16:40:21.000Z,99887
2018-04-25T16:41:21.000Z,99889
2018-04-25T16:43:21.000Z,99900
2018-04-25T16:44:51.000Z,99891
2018-04-25T16:46:21.000Z,99898
2018-04-25T16:48:21.000Z,99896
2018-04-25T16:50:21.000Z,99894
2018-04-25T16:52:21.000Z,99903
2018-04-25T16:54:21.000Z,99905
2018-04-25T16:55:21.000Z,99908
2018-04-25T16:57:21.000Z,99902
2018-04-25T16:59:21.000Z,99899
2018-04-25T17:00:21.000Z,99907
2018-04-25T17:02:21.000Z,99907
2018-04-25T17:03:21.000Z,99902
2018-04-25T17:05:21.000Z,99893
2018-04-25T17:06:21.000Z,99896
2018-04-25T17:08:21.000Z,99892
2018-04-25T17:10:21.000Z,99890
2018-04-25T17:11:21.000Z,99893
2018-04-25T17:13:21.000Z,99893
2018-04-25T17:14:21.000Z,99891
2018-04-25T17:16:05.000Z,99886
2018-04-25T17:17:21.000Z,99891
2018-04-25T17:19:21.000Z,99897
2018-04-25T17:21:05.000Z,99903
2018-04-25T17:22:21.000Z,99900
2018-04-25T17:24:05.000Z,99899
2018-04-25T17:25:21.000Z,99896
2018-04-25T17:27:21.000Z,99896
2018-04-25T17:29:21.000Z,99896
2018-04-25T17:30:21.000Z,99896
2018-04-25T17:32:21.000Z,99899
2018-04-25T17:33:21.000Z,99902
2018-04-25T17:35:21.000Z,99897
2018-04-25T17:36:21.000Z,99892
2018-04-25T17:38:21.000Z,99890
2018-04-25T17:39:21.000Z,99893
2018-04-25T17:41:21.000Z,99899
2018-04-25T17:42:21.000Z,99895
2018-04-25T17:44:21.000Z,99883
2018-04-25T17:45:21.000Z,99885
2018-04-25T17:47:21.000Z,99889
2018-04-25T17:49:21.000Z,99891
2018-04-25T17:51:21.000Z,99884
2018-04-25T17:53:21.000Z,99892
2018-04-25T17:54:21.000Z,99888
2018-04-25T17:56:21.000Z,99890
2018-04-25T17:57:21.000Z,99889
2018-04-25T17:58:21.000Z,99892
2018-04-25T18:00:21.000Z,99901
2018-04-25T18:01:21.000Z,99900
2018-04-25T18:03:21.000Z,99901
2018-04-25T18:04:21.000Z,99894
2018-04-25T18:05:21.000Z,99903
2018-04-25T18:07:21.000Z,99904
2018-04-25T18:09:21.000Z,99901
2018-04-25T18:11:21.000Z,99900
2018-04-25T18:13:21.000Z,99897
2018-04-25T18:15:21.000Z,99903
2018-04-25T18:16:21.000Z,99898
2018-04-25T18:17:21.000Z,99892
2018-04-25T18:19:21.000Z,99904
2018-04-25T18:21:21.000Z,99900
2018-04-25T18:23:06.000Z,99902
2018-04-25T18:24:21.000Z,99902
2018-04-25T18:26:21.000Z,99908
2018-04-25T18:27:21.000Z,99907
2018-04-25T18:29:21.000Z,99909
2018-04-25T18:31:21.000Z,99909
2018-04-25T18:33:06.000Z,99917
2018-04-25T18:34:21.000Z,99918
2018-04-25T18:36:21.000Z,99916
2018-04-25T18:38:21.000Z,99916
2018-04-25T18:40:21.000Z,99921
2018-04-25T18:42:21.000Z,99922
2018-04-25T18:44:21.000Z,99915
2018-04-25T18:45:21.000Z,99914
2018-04-25T18:47:21.000Z,99918
2018-04-25T18:49:21.000Z,99917
2018-04-25T18:51:06.000Z,99922
2018-04-25T18:52:21.000Z,99921
2018-04-25T18:54:06.000Z,99922
2018-04-25T18:55:21.000Z,99925
2018-04-25T18:56:21.000Z,99928
2018-04-25T18:57:21.000Z,99925
2018-04-25T18:59:21.000Z,99926
2018-04-25T19:01:21.000Z,99930
2018-04-25T19:03:21.000Z,99927
2018-04-25T19:04:21.000Z,99928
2018-04-25T19:06:06.000Z,99933
2018-04-25T19:07:21.000Z,99930
2018-04-25T19:08:21.000Z,99933
2018-04-25T19:10:06.000Z,99935
2018-04-25T19:11:06.000Z,99935
2018-04-25T19:12:21.000Z,99933
2018-04-25T19:14:21.000Z,99940
2018-04-25T19:16:06.000Z,99933
2018-04-25T19:17:21.000Z,99938
2018-04-25T19:19:21.000Z,99937
2018-04-25T19:20:21.000Z,99937
2018-04-25T19:22:06.000Z,99942
2018-04-25T19:23:21.000Z,99940
2018-04-25T19:24:21.000Z,99943
2018-04-25T19:26:21.000Z,99950
2018-04-25T19:28:21.000Z,99954
2018-04-25T19:30:21.000Z,99954
2018-04-25T19:32:21.000Z,99960
2018-04-25T19:33:21.000Z,99957
2018-04-25T19:35:21.000Z,99964
2018-04-25T19:36:21.000Z,99957
2018-04-25T19:38:21.000Z,99964
2018-04-25T19:39:21.000Z,99958
2018-04-25T19:40:21.000Z,99959
2018-04-25T19:42:21.000Z,99961
2018-04-25T19:44:21.000Z,99959
2018-04-25T19:45:21.000Z,99963
2018-04-25T19:47:21.000Z,99965
2018-04-25T19:48:21.000Z,99966
2018-04-25T19:50:06.000Z,99971
2018-04-25T19:51:21.000Z,99966
2018-04-25T19:52:21.000Z,99972
2018-04-25T19:54:06.000Z,99970
2018-04-25T19:55:21.000Z,99971
2018-04-25T19:57:21.000Z,99971
2018-04-25T19:59:21.000Z,99971
2018-04-25T20:01:21.000Z,99976
2018-04-25T20:02:21.000Z,99972
2018-04-25T20:04:21.000Z,99978
2018-04-25T20:05:21.000Z,99975
2018-04-25T20:07:21.000Z,99972
2018-04-25T20:09:21.000Z,99976
2018-04-25T20:11:21.000Z,99973
2018-04-25T20:12:21.000Z,99980
2018-04-25T20:13:50.000Z,99977
2018-04-25T20:15:21.000Z,99978
2018-04-25T20:16:21.000Z,99984
2018-04-25T20:18:21.000Z,99980
2018-04-25T20:19:21.000Z,99974
2018-04-25T20:21:21.000Z,99975
2018-04-25T20:23:21.000Z,99980
2018-04-25T20:25:21.000Z,99986
2018-04-25T20:27:21.000Z,99983
2018-04-25T20:28:21.000Z,99982
2018-04-25T20:30:21.000Z,99980
2018-04-25T20:32:21.000Z,99985
2018-04-25T20:34:21.000Z,99988
2018-04-25T20:36:21.000Z,99985
2018-04-25T20:37:21.000Z,99992
2018-04-25T20:38:21.000Z,99994
2018-04-25T20:40:21.000Z,100005